AEB weather

Baise Youjiang Airport
Baise, Guangxi Autonomous Region, China

Public forecast

Using degrees Celsius for public forecast. Weather courtesy of forecast.io.

METAR (pilot weather report)

Closest report is Nanning Wuxu Airport, 94.5 nm (175.1 km) SE. Retrieved 2019/05/19 18:00 UTC (39 minutes ago):

ZGNN 191800Z VRB01MPS 9999 SCT009 28/26 Q1005 NOSIG

TAF (pilot weather forecast)

Closest forecast is Nanning Wuxu Airport, 94.5 nm (175.1 km) SE. Retrieved 2019/05/19 18:00 UTC (39 minutes ago):

TAF ZGNN 191506Z 1918/2018 05003MPS 9999 SCT033 TX30/2007Z TN25/1922Z TEMPO 1920/2001 TSRA SCT010 FEW026CB BKN030